Station: Kowen Forest  

  Atmospheric Gas Attenuation - ITU Rec 676-11   ----------------- dB/100km -----------------
Date Time Temp RH % AH g/m3 Dew Point Wind Direction Speed kph Gust kph Barometer mB Rainfall Since 9am 24GHz 47GHz 76GHz 122GHz 134GHz 241GHz
03/09 09:50 14.9 49 6.24 4.4 28 35 1013.1 0 14.5 22.0 30.3 79.2 67.6 230.8
03/09 09:40 15 53 6.8 5.5 20 28 1013.1 0 15.7 22.8 32.3 84.5 74.3 254.1
03/09 09:30 14.9 56 7.14 6.3 20 26 1013.1 0 16.4 23.3 33.6 88.0 78.5 269.0
03/09 09:20 14.8 58 7.35 6.7 24 30 1013.1 0 16.9 23.6 34.5 90.2 81.2 278.4
03/09 09:10 14.7 59 7.43 6.8 26 33 1013.1 0 17.1 23.8 34.8 91.1 82.3 282.3
03/09 09:00 14.8 62 7.85 7.6 20 30 1013.1 4.6 17.9 24.4 36.4 95.3 87.5 300.4
03/09 08:50 14.6 67 8.38 8.6 19 24 1013.1 4.6 19.1 25.3 38.5 101.1 94.5 325.0
03/09 08:40 14.5 71 8.83 9.3 17 22 1013.1 4.6 20.0 26.1 40.4 106.0 100.5 346.0
03/09 08:30 14.4 71 8.78 9.2 19 22 1013.1 4.6 19.9 26.0 40.2 105.6 100.0 344.2
03/09 08:20 14.2 75 9.16 9.8 19 24 1013.1 4.6 20.8 26.7 41.8 109.9 105.3 362.7
03/09 08:10 13.8 78 9.29 10.1 17 20 1013.1 4.6 21.1 27.0 42.6 111.9 107.6 370.7
03/09 08:00 13.4 82 9.53 10.4 15 17 1013.1 4.6 21.6 27.5 43.8 115.2 111.5 384.1
03/09 07:50 13.2 85 9.76 10.8 17 19 1013.1 4.6 22.1 28.0 44.9 118.0 114.9 396.2
03/09 07:40 12.9 86 9.69 10.6 15 17 1013.1 4.6 22.0 28.0 44.8 117.7 114.4 394.4
03/09 07:30 12.5 88 9.68 10.6 13 17 1013.1 4.6 22.0 28.1 45.0 118.2 114.9 395.9
03/09 07:20 12.1 90 9.65 10.6 13 13 1013.1 4.6 21.9 28.2 45.1 118.5 115.0 396.5
03/09 07:10 12 90 9.59 10.4 11 13 1013.1 4.6 21.8 28.1 44.9 117.9 114.4 394.1
03/09 07:00 11.8 92 9.68 10.5 11 13 1013.1 4.6 22.0 28.3 45.4 119.3 115.9 399.5
03/09 06:50 11.8 91 9.58 10.4 13 15 1013.1 4.6 21.8 28.1 44.9 118.1 114.5 394.6
03/09 06:40 11.8 91 9.58 10.4 13 15 1013.1 4.6 21.8 28.1 44.9 118.1 114.5 394.6
03/09 06:30 11.9 90 9.53 10.3 11 15 1013.1 4.6 21.7 28.0 44.7 117.4 113.7 391.6
03/09 06:20 11.8 90 9.47 10.3 11 13 1013.1 4.6 21.6 27.9 44.5 116.9 113.0 389.2
03/09 06:10 11.8 90 9.47 10.3 13 15 1013.1 4.4 21.6 27.9 44.5 116.9 113.0 389.2
03/09 06:00 11.7 92 9.62 10.4 13 17 1013.1 4.2 21.9 28.2 45.2 118.7 115.2 397.1
03/09 05:50 11.7 92 9.62 10.4 11 13 1013.1 3.8 21.9 28.2 45.2 118.7 115.2 397.1
03/09 05:40 11.7 92 9.62 10.4 17 20 1013.1 3.4 21.9 28.2 45.2 118.7 115.2 397.1
03/09 05:30 11.6 93 9.67 10.5 9 15 1013.1 3 22.0 28.4 45.4 119.5 116.1 400.1
03/09 05:20 11.6 93 9.67 10.5 11 13 1013.1 2.6 22.0 28.4 45.4 119.5 116.1 400.1
03/09 05:10 11.6 92 9.56 10.4 9 13 1013.1 2.4 21.8 28.2 45.0 118.2 114.5 394.6
03/09 05:00 11.7 92 9.62 10.5 9 11 1013.1 2.2 21.9 28.2 45.2 118.7 115.2 397.1
03/09 04:50 11.8 91 9.58 10.4 11 13 1013.1 2 21.8 28.1 44.9 118.1 114.5 394.6
03/09 04:30 11.9 91 9.64 10.5 9 13 1013.1 2 21.9 28.2 45.1 118.7 115.2 397.0
03/09 04:20 11.9 92 9.74 10.6 11 13 1013.1 2 22.1 28.4 45.6 119.8 116.6 402.0
03/09 04:10 12.1 90 9.65 10.5 9 13 1013.1 1.6 21.9 28.2 45.1 118.5 115.0 396.5
03/09 03:50 12.1 90 9.65 10.5 9 13 1013.1 1.6 21.9 28.2 45.1 118.5 115.0 396.5
03/09 03:40 12.1 90 9.65 10.6 9 11 1013.1 1.6 21.9 28.2 45.1 118.5 115.0 396.5
03/09 03:30 12.1 91 9.76 10.7 11 11 1013.1 1.6 22.2 28.3 45.5 119.7 116.6 401.9
03/09 03:20 12 92 9.81 10.8 9 11 1013.1 1.4 22.3 28.5 45.8 120.5 117.5 404.9
03/09 03:10 12.1 92 9.87 10.9 9 15 1013.1 1.4 22.4 28.5 46.0 121.0 118.2 407.3
03/09 03:00 12.1 93 9.97 11 9 11 1013.1 1.4 22.6 28.7 46.4 122.1 119.6 412.3
03/09 02:50 12.2 92 9.93 11 7 9 1013.1 1.2 22.5 28.6 46.2 121.5 118.8 409.8
03/09 02:40 12.2 92 9.93 11 9 11 1013.1 1.2 22.5 28.6 46.2 121.5 118.8 409.8
03/09 02:30 12.2 92 9.93 11 7 9 1013.1 1.2 22.5 28.6 46.2 121.5 118.8 409.8
03/09 02:20 12.2 93 10.04 11.1 9 11 1013.1 1.2 22.8 28.8 46.7 122.8 120.4 415.2
03/09 02:10 12.2 92 9.93 11 11 13 1013.1 1.2 22.5 28.6 46.2 121.5 118.8 409.8
03/09 02:00 12.2 92 9.93 10.9 9 11 1013.1 1 22.5 28.6 46.2 121.5 118.8 409.8
03/09 01:50 12.2 91 9.82 10.8 7 11 1013.1 1 22.3 28.4 45.7 120.3 117.3 404.4
03/09 01:40 11.9 93 9.85 10.8 9 13 1013.1 0.8 22.4 28.6 46.0 121.1 118.2 407.4
03/09 01:30 11.8 93 9.79 10.7 7 9 1013.1 0.8 22.2 28.5 45.8 120.5 117.5 405.0
03/09 01:20 11.7 94 9.83 10.7 7 9 1013.1 0.8 22.3 28.6 46.1 121.2 118.2 407.5
03/09 01:00 12.1 92 9.87 10.8 6 6 1013.1 0.8 22.4 28.5 46.0 121.0 118.2 407.3
03/09 00:50 12.4 90 9.83 10.9 6 7 1013.1 0.8 22.3 28.4 45.7 120.1 117.1 403.8
03/09 00:40 12.5 90 9.9 10.9 6 9 1013.1 0.8 22.4 28.5 45.9 120.7 118.0 406.7
03/09 00:30 12.7 89 9.91 11 9 11 1013.1 0.8 22.5 28.4 45.8 120.5 117.8 406.2
03/09 00:20 12.8 89 9.97 11 11 15 1013.1 0.8 22.6 28.5 46.0 121.0 118.5 408.6
03/09 00:10 12.9 88 9.92 11 13 17 1013.1 0.8 22.5 28.4 45.7 120.3 117.6 405.6
03/09 00:00 13 88 9.98 11 13 17 1013.1 0.8 22.6 28.4 45.9 120.8 118.3 408.0
02/09 23:50 13.1 88 10.04 11.1 13 15 1013.1 0.8 22.7 28.5 46.1 121.4 119.0 410.4
02/09 23:40 13.2 86 9.88 11 15 17 1013.1 0.4 22.4 28.2 45.4 119.4 116.6 402.1
02/09 23:30 13.5 84 9.83 10.9 15 19 1013.1 0.2 22.2 28.0 45.0 118.4 115.5 398.1
02/09 23:20 13.8 83 9.89 10.9 19 22 1013.1 0 22.4 28.0 45.1 118.6 115.8 399.5
02/09 23:10 14.2 77 9.4 10.3 19 24 1013.1 0 21.3 27.1 42.8 112.6 108.5 374.0
02/09 23:00 14.2 75 9.16 9.8 19 24 1013.1 0 20.8 26.7 41.8 109.9 105.3 362.7
02/09 22:40 13.9 75 8.99 9.6 11 13 1013.1 0 20.4 26.5 41.3 108.5 103.4 356.2
02/09 22:30 14 75 9.05 9.7 11 13 1013.1 0 20.5 26.6 41.5 109.0 104.1 358.5
02/09 22:20 14.1 75 9.1 9.8 11 11 1013.1 0 20.6 26.6 41.7 109.4 104.6 360.4
02/09 22:10 14.1 75 9.1 9.8 9 13 1013.1 0 20.6 26.6 41.7 109.4 104.6 360.4
02/09 22:00 14.2 75 9.16 9.9 7 11 1013.1 0 20.8 26.7 41.8 109.9 105.3 362.7
02/09 21:50 14.2 76 9.28 10 9 11 1013.1 0 21.0 26.9 42.3 111.2 106.9 368.4
02/09 21:40 14 77 9.29 10 9 11 1013.1 0 21.1 27.0 42.5 111.6 107.3 369.8
02/09 21:30 13.9 78 9.35 10.1 11 15 1013.1 0 21.2 27.1 42.8 112.4 108.3 373.1
02/09 21:20 13.8 78 9.29 10.1 11 15 1013.1 0 21.1 27.0 42.6 111.9 107.6 370.7
02/09 21:10 13.7 79 9.36 10.1 9 11 1013.1 0 21.2 27.2 42.9 112.8 108.7 374.5
02/09 21:00 13.6 79 9.3 10 9 11 1013.1 0 21.1 27.1 42.7 112.3 108.0 372.2
02/09 20:50 13.7 79 9.36 10.1 6 7 1013.1 0 21.2 27.2 42.9 112.8 108.7 374.5
02/09 20:40 13.9 77 9.23 10 6 7 1013.1 0 20.9 26.9 42.3 111.1 106.7 367.4
02/09 20:30 13.9 77 9.23 10 7 11 1013.1 0 20.9 26.9 42.3 111.1 106.7 367.4
02/09 20:20 14.2 76 9.28 10 7 9 1013.1 0 21.0 26.9 42.3 111.2 106.9 368.4
02/09 20:10 14.5 74 9.2 9.9 7 11 1013.1 0 20.8 26.7 41.9 109.9 105.4 363.2
02/09 20:00 14.6 73 9.14 9.8 7 9 1013.1 0 20.7 26.5 41.6 109.2 104.5 360.0
02/09 19:50 14.9 71 9.05 9.7 7 9 1013.1 0 20.5 26.3 41.0 107.8 102.9 354.4
02/09 19:40 15 70 8.98 9.6 9 11 1013.1 0 20.3 26.2 40.7 106.9 101.9 350.7
02/09 19:30 15.1 68 8.77 9.3 11 15 1013.1 0 19.9 25.8 39.8 104.5 99.0 340.7
02/09 19:20 15 68 8.72 9.3 9 13 1013.1 0 19.8 25.7 39.7 104.1 98.4 338.8
02/09 19:00 15.1 67 8.64 9.1 13 15 1013.1 0 19.6 25.6 39.3 103.1 97.3 334.7
02/09 18:50 15.2 66 8.57 8.9 15 19 1013.1 0 19.5 25.4 39.0 102.3 96.2 331.1
02/09 18:40 15.2 66 8.57 8.9 13 17 1013.1 0 19.5 25.4 39.0 102.3 96.2 331.1
02/09 18:30 15.2 65 8.44 8.8 15 20 1013.1 0 19.2 25.2 38.5 100.9 94.6 325.3
02/09 18:20 15.2 64 8.31 8.6 15 17 1013.1 0 18.9 25.0 38.0 99.6 92.9 319.4
02/09 18:10 15.4 63 8.28 8.5 15 20 1013.1 0 18.8 24.9 37.7 99.0 92.3 317.3
02/09 18:00 15.5 63 8.33 8.5 17 20 1013.1 0 18.9 25.0 37.9 99.4 92.8 319.1
02/09 17:50 15.6 62 8.25 8.3 17 20 1013.1 0 18.8 24.8 37.5 98.4 91.7 315.1
02/09 17:40 15.9 60 8.13 8.1 22 26 1013.1 0 18.5 24.6 36.9 96.8 89.8 308.6
02/09 17:20 16.2 58 8 7.9 24 30 1013.1 0 18.2 24.3 36.3 95.2 87.8 301.8
02/09 17:10 16.4 57 7.96 7.9 22 30 1013.1 0 18.1 24.2 36.1 94.5 87.1 299.3
02/09 17:00 16.7 57 8.1 8.1 20 24 1013.1 0 18.4 24.3 36.5 95.6 88.5 304.2
02/09 16:50 16.9 56 8.05 8.1 22 28 1013.1 0 18.3 24.2 36.2 94.8 87.7 301.3
02/09 16:40 17.7 53 8 8 24 32 1013.1 0 18.1 23.9 35.6 93.4 86.2 296.1
02/09 16:30 18 51 7.83 7.9 19 28 1013.1 0 17.8 23.5 34.9 91.4 83.8 287.8
02/09 16:20 17.9 50 7.63 7.5 22 32 1013.1 0 17.3 23.3 34.2 89.5 81.5 279.7

Last Refresh: 03-Sep-2026 09:42:51

Bureau of Meteorology